首页
METAR-TAF:

METAR-TAF

机场 :

菲利普戈尔德森国际机场

伯利兹, 伯利兹

纬度: 17-32N, 经度: 088-18W, 海拔: 5米

当前天气观测

该预报发布于17分钟前的18:00 UTC
风速9节,风向东转东北
温度 31°C
湿度 66%
气压 1015 hPa
能见度10公里或以上
散云层高于2400英尺

METAR: MZBZ 151800Z 07009KT 9999 SCT024 31/24 A2998 Q1015 NOSIG RMK DIST CB TOP-N/NE

时间: 12:17 (18:17 UTC)

预报

该预报发布于3小时和17分钟前的15:00 UTC
预报有效从15日的 18点(UTC)到 16日的 18点(UTC)
风速7节,风向
能见度10公里或以上
散云层高于2300英尺

TAF: MZBZ 151500Z 1518/1618 09007KT 9999 SCT023

超过4000个机场的气象观测和天气预报(METAR&TAF报告)。

可查询的气象台以黄色和红色小点在地图上表示。

将鼠标移到小点上方,可查看气象台名称。

然后点击查看天气观测和预报。

如需切换地图:点击带黑十字的绿色按钮放大地图;点击带横线的绿色按钮缩小地图;或者点击绿色箭头查看邻近地区的地图。


METAR-TAF: